East Windham, NY

7:09 PM EST on November 21, 2019 (GMT -0500)
Cornwallville | | Change Station

Elev 974 ft 42.37 °N, 74.16 °W | Updated 49 seconds ago

Clear
Clear
34.9 °F
Feels Like 35 °F
N
0
Wind Variable Wind from ESE
Gusts 0.0 mph

Today
High -- | Low -- °F
--% Chance of Precip.
Yesterday
High -- | Low -- °F
Precip. -- in
Pressure 30.04 in
Visibility 10.0 miles
Clouds Overcast 18000 ft
Windchill 35 °F
Dew Point 31 °F
Humidity 87%
Rainfall 0.00 in
Snow Depth Not available.
6:54 AM 4:30 PM
Waning Crescent, 26% visible
METAR KALB 212351Z 00000KT 10SM OVC180 03/M01 A3003 RMK AO2 SLP173 T00331006 10083 20028 58019
Pressure 30.04 in
Visibility 10.0 miles
Clouds Overcast 18000 ft
Windchill 35 °F
Dew Point 31 °F
Humidity 87%
Rainfall 0.00 in
Snow Depth Not available.
6:54 AM 4:30 PM
Waning Crescent, 26% visible
METAR KALB 212351Z 00000KT 10SM OVC180 03/M01 A3003 RMK AO2 SLP173 T00331006 10083 20028 58019

Get Severe Weather Alerts

Thanks for signing up!

Be on the lookout for a verification email in your inbox.

You'll start receiving the daily forecast at 6 AM.

×

10-Day Weather Forecast

Almanac

Astronomy

Nov. 21, 2019 Rise Set
Actual Time
Civil Twilight
Nautical Twilight
Astronomical Twilight
Moon
Length of Visible Light
Length of Day
Tomorrow will be .
, % of the Moon is Illuminated

Today's Extremes

State Highs State Lows

Community

WunderPhotos

Category 6

Welcome to Category 6. This is the collective home for Weather Underground's featured writeups by Dr. Jeff Masters (right), Bob Henson (left), Chris Burt, and other regular contributors.

Nearby

Air Quality

  Air Quality AQ Index Pollutant
Not available.

Snow Depth

Station Depth Elevation

Earthquake Activity

City Distance Mag. Time & Date
Minimum magnitude displayed is 2.5.

Coastal Water Temperatures

Place Temperature

Stations

Nearby Weather Stations

Station Location Temp. Windchill Dew Point Humidity Wind Precip. Elev Updated Type
                   

Watches & Warnings

There are currently no watches in effect.